createdAt,value
2018-03-06T00:02:19.914Z,53.33
2018-03-06T00:04:47.146Z,51.97
2018-03-06T00:07:14.100Z,55.83
2018-03-06T00:09:41.210Z,56.58
2018-03-06T00:12:08.136Z,60.17
2018-03-06T00:14:35.088Z,56.47
2018-03-06T00:17:02.064Z,52.38
2018-03-06T00:19:29.180Z,54.40
2018-03-06T00:21:56.388Z,53.67
2018-03-06T00:24:23.609Z,53.87
2018-03-06T00:26:50.825Z,52.22
2018-03-06T00:29:17.799Z,52.38
2018-03-06T00:31:44.884Z,50.33
2018-03-06T00:34:12.029Z,46.97
2018-03-06T00:36:39.111Z,46.83
2018-03-06T00:39:06.224Z,48.67
2018-03-06T00:41:33.303Z,49.30
2018-03-06T00:44:00.264Z,45.63
2018-03-06T00:46:27.263Z,48.83
2018-03-06T00:48:54.376Z,47.45
2018-03-06T00:51:21.352Z,46.75
2018-03-06T00:53:48.492Z,47.90
2018-03-06T00:56:15.448Z,45.05
2018-03-06T00:58:42.477Z,48.97
2018-03-06T01:01:09.446Z,48.50
2018-03-06T01:03:36.491Z,46.92
2018-03-06T01:06:03.423Z,47.75
2018-03-06T01:08:30.433Z,45.28
2018-03-06T01:10:57.400Z,47.30
2018-03-06T01:13:24.533Z,47.67
2018-03-06T01:15:51.761Z,44.88
2018-03-06T01:18:18.789Z,45.72
2018-03-06T01:20:45.785Z,46.85
2018-03-06T01:23:12.886Z,44.22
2018-03-06T01:25:39.930Z,47.22
2018-03-06T01:28:07.036Z,42.95
2018-03-06T01:30:34.077Z,43.30
2018-03-06T01:33:01.229Z,42.80
2018-03-06T01:35:28.386Z,46.08
2018-03-06T01:37:55.505Z,41.10
2018-03-06T01:40:22.646Z,43.38
2018-03-06T01:42:49.894Z,43.80
2018-03-06T01:45:16.944Z,42.65
2018-03-06T01:47:43.963Z,42.38
2018-03-06T01:50:11.119Z,41.30
2018-03-06T01:52:38.279Z,42.50
2018-03-06T01:55:05.385Z,42.03
2018-03-06T01:57:32.324Z,41.13
2018-03-06T01:59:59.378Z,41.47
2018-03-06T02:02:26.282Z,41.67
2018-03-06T02:04:53.363Z,40.28
2018-03-06T02:07:20.472Z,39.45
2018-03-06T02:09:47.686Z,40.53
2018-03-06T02:12:14.666Z,39.83
2018-03-06T02:14:41.850Z,37.88
2018-03-06T02:17:09.042Z,39.15
2018-03-06T02:19:36.148Z,38.75
2018-03-06T02:22:03.100Z,38.25
2018-03-06T02:24:30.021Z,39.22
2018-03-06T02:26:57.008Z,36.90
2018-03-06T02:29:24.107Z,38.45
2018-03-06T02:31:51.287Z,37.35
2018-03-06T02:34:18.293Z,37.95
2018-03-06T02:36:45.450Z,36.10
2018-03-06T02:39:12.378Z,38.95
2018-03-06T02:41:39.392Z,37.53
2018-03-06T02:44:06.500Z,37.20
2018-03-06T02:46:33.592Z,36.55
2018-03-06T02:49:00.602Z,36.00
2018-03-06T02:51:27.562Z,38.80
2018-03-06T02:53:54.560Z,37.97
2018-03-06T02:56:21.551Z,38.03
2018-03-06T02:58:48.646Z,40.03
2018-03-06T03:01:15.585Z,39.95
2018-03-06T03:03:42.640Z,38.03
2018-03-06T03:06:09.684Z,37.63
2018-03-06T03:08:36.776Z,39.42
2018-03-06T03:11:03.723Z,37.17
2018-03-06T03:13:30.854Z,39.90
2018-03-06T03:15:57.909Z,39.05
2018-03-06T03:18:25.085Z,41.33
2018-03-06T03:20:52.174Z,38.55
2018-03-06T03:23:19.208Z,40.17
2018-03-06T03:25:46.244Z,40.55
2018-03-06T03:28:13.180Z,38.60
2018-03-06T03:30:40.253Z,39.08
2018-03-06T03:33:07.396Z,38.88
2018-03-06T03:35:34.700Z,39.03
2018-03-06T03:38:01.748Z,41.75
2018-03-06T03:40:28.694Z,42.15
2018-03-06T03:42:55.842Z,40.83
2018-03-06T03:45:22.925Z,38.92
2018-03-06T03:47:49.934Z,40.70
2018-03-06T03:50:16.961Z,39.38
2018-03-06T03:52:44.012Z,41.20
2018-03-06T03:55:11.189Z,40.12
2018-03-06T03:57:38.318Z,38.97
2018-03-06T04:00:05.357Z,38.92
2018-03-06T04:02:32.294Z,38.67
2018-03-06T04:04:59.376Z,38.10
2018-03-06T04:07:26.480Z,39.90
2018-03-06T04:09:53.752Z,38.03
2018-03-06T04:12:20.844Z,38.00
2018-03-06T04:14:47.991Z,35.72
2018-03-06T04:17:15.047Z,37.42
2018-03-06T04:19:42.273Z,32.28
2018-03-06T04:22:09.278Z,33.10
2018-03-06T04:24:36.202Z,33.17
2018-03-06T04:27:03.251Z,33.60
2018-03-06T04:29:30.204Z,32.90
2018-03-06T04:31:57.256Z,34.53
2018-03-06T04:34:24.429Z,32.97
2018-03-06T04:36:51.504Z,34.67
2018-03-06T04:39:18.548Z,33.20
2018-03-06T04:41:45.552Z,33.08
2018-03-06T04:44:12.606Z,33.38
2018-03-06T04:46:39.748Z,33.75
2018-03-06T04:49:06.864Z,35.70
2018-03-06T04:51:33.865Z,34.92
2018-03-06T04:54:00.896Z,34.17
2018-03-06T04:56:27.875Z,35.45
2018-03-06T04:58:55.029Z,34.33
2018-03-06T05:01:22.257Z,36.67
2018-03-06T05:03:49.167Z,35.70
2018-03-06T05:06:16.222Z,34.33
2018-03-06T05:08:43.365Z,32.03
2018-03-06T05:11:10.536Z,33.30
2018-03-06T05:13:37.708Z,31.73
2018-03-06T05:16:04.731Z,33.33
2018-03-06T05:18:31.591Z,32.92
2018-03-06T05:20:58.503Z,33.58
2018-03-06T05:23:25.450Z,32.63
2018-03-06T05:25:52.359Z,33.53
2018-03-06T05:28:19.368Z,33.47
2018-03-06T05:30:46.452Z,33.63
2018-03-06T05:33:13.361Z,33.30
2018-03-06T05:35:40.441Z,33.05
2018-03-06T05:38:07.320Z,35.50
2018-03-06T05:40:34.259Z,33.30
2018-03-06T05:43:01.355Z,31.50
2018-03-06T05:45:28.313Z,34.83
2018-03-06T05:47:55.272Z,33.25
2018-03-06T05:50:22.303Z,35.05
2018-03-06T05:52:49.251Z,32.78
2018-03-06T05:55:16.298Z,34.60
2018-03-06T05:57:43.299Z,35.55
2018-03-06T06:00:10.360Z,33.75
2018-03-06T06:02:37.361Z,35.47
2018-03-06T06:05:04.538Z,34.97
2018-03-06T06:07:31.518Z,34.97
2018-03-06T06:09:58.614Z,35.60
2018-03-06T06:12:25.524Z,35.40
2018-03-06T06:14:52.723Z,37.22
2018-03-06T06:17:19.787Z,35.72
2018-03-06T06:19:46.910Z,35.88
2018-03-06T06:22:13.883Z,34.08
2018-03-06T06:24:42.418Z,36.03
2018-03-06T06:27:09.374Z,36.53
2018-03-06T06:29:36.314Z,37.80
2018-03-06T06:32:03.277Z,39.08
2018-03-06T06:34:30.296Z,37.42
2018-03-06T06:36:57.184Z,37.38
2018-03-06T06:39:24.224Z,37.47
2018-03-06T06:41:51.411Z,37.60
2018-03-06T06:44:18.405Z,37.85
2018-03-06T06:46:45.285Z,37.58
2018-03-06T06:49:12.333Z,37.17
2018-03-06T06:51:39.315Z,38.40
2018-03-06T06:54:06.323Z,38.30
2018-03-06T06:56:33.388Z,38.28
2018-03-06T06:59:00.463Z,38.22
2018-03-06T07:01:27.507Z,37.35
2018-03-06T07:03:54.521Z,36.83
2018-03-06T07:06:21.463Z,36.33
2018-03-06T07:08:48.404Z,33.90
2018-03-06T07:11:15.349Z,31.95
2018-03-06T07:13:42.321Z,34.10
2018-03-06T07:16:09.309Z,32.70
2018-03-06T07:18:36.321Z,34.08
2018-03-06T07:21:03.338Z,34.20
2018-03-06T07:23:30.228Z,30.92
2018-03-06T07:25:57.218Z,31.50
2018-03-06T07:28:24.245Z,32.15
2018-03-06T07:30:51.741Z,33.30
2018-03-06T07:33:18.641Z,32.58
2018-03-06T07:35:45.653Z,29.95
2018-03-06T07:38:12.573Z,33.78
2018-03-06T07:40:39.658Z,31.80
2018-03-06T07:43:06.628Z,31.95
2018-03-06T07:45:33.709Z,29.73
2018-03-06T07:48:00.604Z,33.45
2018-03-06T07:50:27.701Z,30.92
2018-03-06T07:52:54.626Z,31.92
2018-03-06T07:55:21.776Z,31.52
2018-03-06T07:57:48.685Z,32.38
2018-03-06T08:00:15.936Z,34.22
2018-03-06T08:02:42.949Z,32.03
2018-03-06T08:05:10.099Z,30.98
2018-03-06T08:07:37.210Z,31.65
2018-03-06T08:10:04.254Z,33.08
2018-03-06T08:12:31.203Z,32.58
2018-03-06T08:14:58.293Z,32.60
2018-03-06T08:17:25.285Z,31.60
2018-03-06T08:19:52.452Z,33.83
2018-03-06T08:22:19.461Z,33.40
2018-03-06T08:24:46.557Z,32.70
2018-03-06T08:27:13.513Z,34.75
2018-03-06T08:29:40.565Z,33.20
2018-03-06T08:32:07.611Z,33.10
2018-03-06T08:34:35.001Z,34.08
2018-03-06T08:37:01.918Z,32.65
2018-03-06T08:39:28.881Z,33.10
2018-03-06T08:41:55.945Z,31.02
2018-03-06T08:44:23.004Z,33.85
2018-03-06T08:46:50.048Z,33.03
2018-03-06T08:49:17.033Z,32.88
2018-03-06T08:51:43.958Z,32.60
2018-03-06T08:54:10.913Z,32.08
2018-03-06T08:56:38.881Z,32.80
2018-03-06T08:59:05.848Z,34.08
2018-03-06T09:01:32.742Z,32.17
2018-03-06T09:03:59.615Z,31.65
2018-03-06T09:06:26.551Z,34.85
2018-03-06T09:08:53.554Z,34.67
2018-03-06T09:11:20.524Z,36.55
2018-03-06T09:13:47.496Z,35.35
2018-03-06T09:16:14.467Z,36.47
2018-03-06T09:18:41.429Z,35.13
2018-03-06T09:21:08.368Z,34.95
2018-03-06T09:23:35.338Z,34.63
2018-03-06T09:26:02.270Z,30.83
2018-03-06T09:28:29.279Z,32.00
2018-03-06T09:30:56.378Z,30.88
2018-03-06T09:33:23.292Z,33.67
2018-03-06T09:35:50.373Z,31.10
2018-03-06T09:38:17.373Z,30.80
2018-03-06T09:40:44.306Z,30.33
2018-03-06T09:43:11.252Z,31.92
2018-03-06T09:45:38.390Z,31.73
2018-03-06T09:48:05.584Z,33.75
2018-03-06T09:50:32.608Z,33.85
2018-03-06T09:52:59.598Z,32.90
2018-03-06T09:55:27.028Z,31.23
2018-03-06T09:57:53.938Z,30.73
2018-03-06T10:00:21.075Z,32.13
2018-03-06T10:02:47.975Z,29.83
2018-03-06T10:05:15.278Z,28.90
2018-03-06T10:07:42.228Z,29.30
2018-03-06T10:10:09.229Z,27.85
2018-03-06T10:12:36.141Z,27.40
2018-03-06T10:15:03.431Z,29.12
2018-03-06T10:17:30.387Z,26.55
2018-03-06T10:19:57.574Z,28.10
2018-03-06T10:22:24.773Z,27.20
2018-03-06T10:24:51.931Z,26.00
2018-03-06T10:27:18.875Z,28.08
2018-03-06T10:29:46.091Z,25.00
2018-03-06T10:32:13.033Z,25.45
2018-03-06T10:34:40.011Z,23.42
2018-03-06T10:37:07.186Z,24.52
2018-03-06T10:39:34.257Z,24.45
2018-03-06T10:42:01.284Z,25.67
2018-03-06T10:44:28.399Z,24.60
2018-03-06T10:46:55.359Z,24.98
2018-03-06T10:49:22.258Z,23.77
2018-03-06T10:51:49.117Z,25.08
2018-03-06T10:54:16.074Z,25.35
2018-03-06T10:56:42.995Z,26.17
2018-03-06T10:59:10.142Z,23.48
2018-03-06T11:01:37.414Z,24.42
2018-03-06T11:04:04.459Z,24.73
2018-03-06T11:06:31.686Z,25.25
2018-03-06T11:08:58.774Z,25.23
2018-03-06T11:11:25.794Z,24.60
2018-03-06T11:13:52.784Z,25.95
2018-03-06T11:16:19.848Z,24.90
2018-03-06T11:18:46.766Z,24.73
2018-03-06T11:21:13.723Z,24.83
2018-03-06T11:23:40.800Z,24.17
2018-03-06T11:26:07.677Z,24.10
2018-03-06T11:28:34.714Z,24.83
2018-03-06T11:31:01.705Z,24.37
2018-03-06T11:33:28.611Z,24.37
2018-03-06T11:35:55.691Z,23.92
2018-03-06T11:38:22.699Z,21.08
2018-03-06T11:40:49.747Z,23.05
2018-03-06T11:43:16.873Z,22.73
2018-03-06T11:45:43.835Z,23.50
2018-03-06T11:48:10.872Z,24.60
2018-03-06T11:50:37.775Z,22.70
2018-03-06T11:53:04.790Z,22.55
2018-03-06T11:55:31.865Z,22.75
2018-03-06T11:57:58.771Z,23.00
2018-03-06T12:00:25.752Z,23.08
2018-03-06T12:02:52.778Z,22.13
2018-03-06T12:05:19.806Z,22.13
2018-03-06T12:07:46.678Z,23.40
2018-03-06T12:10:13.638Z,21.73
2018-03-06T12:12:40.538Z,22.83
2018-03-06T12:15:07.522Z,22.10
2018-03-06T12:17:34.612Z,23.70
2018-03-06T12:20:01.607Z,24.20
2018-03-06T12:22:28.565Z,24.70
2018-03-06T12:24:55.659Z,22.62
2018-03-06T12:27:22.575Z,23.33
2018-03-06T12:29:49.581Z,23.20
2018-03-06T12:32:16.700Z,25.50
2018-03-06T12:34:43.778Z,24.02
2018-03-06T12:37:10.833Z,23.23
2018-03-06T12:39:37.849Z,24.17
2018-03-06T12:42:04.788Z,23.35
2018-03-06T12:44:31.747Z,24.48
2018-03-06T12:46:58.838Z,21.50
2018-03-06T12:49:25.738Z,24.80
2018-03-06T12:51:52.748Z,22.87
2018-03-06T12:54:19.707Z,23.45
2018-03-06T12:56:46.716Z,24.90
2018-03-06T12:59:13.693Z,22.50
2018-03-06T13:01:40.693Z,24.25
2018-03-06T13:04:07.625Z,23.15
2018-03-06T13:06:34.775Z,24.20
2018-03-06T13:09:01.731Z,23.55
2018-03-06T13:11:28.720Z,25.52
2018-03-06T13:13:55.709Z,26.00
2018-03-06T13:16:22.622Z,24.48
2018-03-06T13:18:49.500Z,23.77
2018-03-06T13:21:16.392Z,25.30
2018-03-06T13:23:43.324Z,24.60
2018-03-06T13:26:10.277Z,25.00
2018-03-06T13:28:37.214Z,23.38
2018-03-06T13:31:04.176Z,23.95
2018-03-06T13:33:31.091Z,24.70
2018-03-06T13:35:58.208Z,23.27
2018-03-06T13:38:25.123Z,22.67
2018-03-06T13:40:52.132Z,27.70
2018-03-06T13:43:19.027Z,25.62
2018-03-06T13:45:45.898Z,23.55
2018-03-06T13:48:12.943Z,23.92
2018-03-06T13:50:39.827Z,24.70
2018-03-06T13:53:06.833Z,24.98
2018-03-06T13:55:33.964Z,25.12
2018-03-06T13:58:00.882Z,24.37
2018-03-06T14:00:27.981Z,25.10
2018-03-06T14:02:55.026Z,24.27
2018-03-06T14:05:22.130Z,23.55
2018-03-06T14:07:49.103Z,24.90
2018-03-06T14:10:16.158Z,24.80
2018-03-06T14:12:43.037Z,24.17
2018-03-06T14:15:10.114Z,23.85
2018-03-06T14:17:37.297Z,23.25
2018-03-06T14:20:04.427Z,23.83
2018-03-06T14:22:31.425Z,23.73
2018-03-06T14:24:58.769Z,24.70
2018-03-06T14:27:25.836Z,23.87
2018-03-06T14:29:52.854Z,24.08
2018-03-06T14:32:19.752Z,23.45
2018-03-06T14:34:46.920Z,26.75
2018-03-06T14:37:13.840Z,24.25
2018-03-06T14:39:41.212Z,24.17
2018-03-06T14:42:08.124Z,26.12
2018-03-06T14:44:35.176Z,24.98
2018-03-06T14:47:02.200Z,23.87
2018-03-06T14:49:29.311Z,21.67
2018-03-06T14:51:56.376Z,23.90
2018-03-06T14:54:23.354Z,24.77
2018-03-06T14:56:50.472Z,25.00
2018-03-06T14:59:17.375Z,25.60
2018-03-06T15:01:44.321Z,26.92
2018-03-06T15:04:11.303Z,24.98
2018-03-06T15:06:38.274Z,24.87
2018-03-06T15:09:05.526Z,26.15
2018-03-06T15:11:32.571Z,24.70
2018-03-06T15:13:59.746Z,24.52
2018-03-06T15:16:26.813Z,24.40
2018-03-06T15:18:53.924Z,25.40
2018-03-06T15:21:20.934Z,25.27
2018-03-06T15:23:47.973Z,25.58
2018-03-06T15:26:14.911Z,26.23
2018-03-06T15:28:42.109Z,26.62
2018-03-06T15:31:09.145Z,27.35
2018-03-06T15:33:36.162Z,26.90
2018-03-06T15:36:03.285Z,25.77
2018-03-06T15:38:30.593Z,26.30
2018-03-06T15:40:57.496Z,27.17
2018-03-06T15:43:24.409Z,27.40
2018-03-06T15:45:51.433Z,28.80
2018-03-06T15:48:19.690Z,28.25
2018-03-06T15:50:47.621Z,27.50
2018-03-06T15:53:17.450Z,26.02
2018-03-06T15:55:44.907Z,28.70
2018-03-06T15:58:12.714Z,28.05
2018-03-06T16:00:40.677Z,26.35
2018-03-06T16:03:09.078Z,25.85
2018-03-06T16:05:36.771Z,27.00
2018-03-06T16:08:04.484Z,27.65
2018-03-06T16:10:32.026Z,28.55
2018-03-06T16:13:00.696Z,27.75
2018-03-06T16:15:27.944Z,28.30
2018-03-06T16:17:55.440Z,28.70
2018-03-06T16:20:22.983Z,28.98
2018-03-06T16:22:50.921Z,28.90
2018-03-06T16:25:19.413Z,29.15
2018-03-06T16:27:47.302Z,27.80
2018-03-06T16:30:14.353Z,28.35
2018-03-06T16:32:42.165Z,27.10
2018-03-06T16:35:10.066Z,28.05
2018-03-06T16:37:38.043Z,27.73
2018-03-06T16:40:05.531Z,27.83
2018-03-06T16:42:32.724Z,28.60
2018-03-06T16:44:59.940Z,28.42
2018-03-06T16:47:27.241Z,26.05
2018-03-06T16:49:54.578Z,27.50
2018-03-06T16:52:21.540Z,28.80
2018-03-06T16:54:48.729Z,30.48
2018-03-06T16:57:17.261Z,29.67
2018-03-06T16:59:44.374Z,29.75
2018-03-06T17:02:12.492Z,29.10
2018-03-06T17:04:39.824Z,28.80
2018-03-06T17:07:08.444Z,27.08
2018-03-06T17:09:35.672Z,28.05
2018-03-06T17:12:03.345Z,28.02
2018-03-06T17:14:30.386Z,27.23
2018-03-06T17:16:57.521Z,26.60
2018-03-06T17:19:24.586Z,25.80
2018-03-06T17:21:51.514Z,28.90
2018-03-06T17:24:18.477Z,29.40
2018-03-06T17:26:45.500Z,27.20
2018-03-06T17:29:12.560Z,29.95
2018-03-06T17:31:39.558Z,31.02
2018-03-06T17:34:06.794Z,29.65
2018-03-06T17:36:34.491Z,31.12
2018-03-06T17:39:01.847Z,28.15
2018-03-06T17:41:29.013Z,28.40
2018-03-06T17:43:56.085Z,29.10
2018-03-06T17:46:23.488Z,31.98
2018-03-06T17:48:50.395Z,30.95
2018-03-06T17:51:17.333Z,29.12
2018-03-06T17:53:44.200Z,28.48
2018-03-06T17:56:11.138Z,27.85
2018-03-06T17:58:39.204Z,27.70
2018-03-06T18:01:06.164Z,27.33
2018-03-06T18:03:33.315Z,28.60
2018-03-06T18:06:00.240Z,27.70
2018-03-06T18:08:27.184Z,28.77
2018-03-06T18:10:54.174Z,28.40
2018-03-06T18:13:21.104Z,28.58
2018-03-06T18:15:48.177Z,27.95
2018-03-06T18:18:15.180Z,28.90
2018-03-06T18:20:42.128Z,31.65
2018-03-06T18:23:09.052Z,28.92
2018-03-06T18:25:36.429Z,28.62
2018-03-06T18:28:03.572Z,29.20
2018-03-06T18:30:30.647Z,30.37
2018-03-06T18:32:57.657Z,30.10
2018-03-06T18:35:24.730Z,29.58
2018-03-06T18:37:51.685Z,28.55
2018-03-06T18:40:18.642Z,29.90
2018-03-06T18:42:45.659Z,30.42
2018-03-06T18:45:12.648Z,31.12
2018-03-06T18:47:39.572Z,30.17
2018-03-06T18:50:06.533Z,29.73
2018-03-06T18:52:33.547Z,33.00
2018-03-06T18:55:00.546Z,28.73
2018-03-06T18:57:27.540Z,27.90
2018-03-06T19:00:00.509Z,31.10
2018-03-06T19:02:33.536Z,28.27
2018-03-06T19:05:06.368Z,30.35
2018-03-06T19:07:33.407Z,28.77
2018-03-06T19:10:00.574Z,28.35
2018-03-06T19:12:27.531Z,30.98
2018-03-06T19:14:54.640Z,31.27
2018-03-06T19:17:21.666Z,31.08
2018-03-06T19:19:48.614Z,31.52
2018-03-06T19:22:15.590Z,32.45
2018-03-06T19:24:42.817Z,31.50
2018-03-06T19:27:10.017Z,33.13
2018-03-06T19:29:37.185Z,34.25
2018-03-06T19:32:04.516Z,35.00
2018-03-06T19:34:31.775Z,36.30
2018-03-06T19:36:58.807Z,36.58
2018-03-06T19:39:25.816Z,33.90
2018-03-06T19:41:52.835Z,35.50
2018-03-06T19:44:19.751Z,36.17
2018-03-06T19:46:46.677Z,33.88
2018-03-06T19:49:13.573Z,32.95
2018-03-06T19:51:40.642Z,34.80
2018-03-06T19:54:07.621Z,34.90
2018-03-06T19:56:34.889Z,34.35
2018-03-06T19:59:01.916Z,34.38
2018-03-06T20:01:28.967Z,34.63
2018-03-06T20:03:56.087Z,34.58
2018-03-06T20:06:23.185Z,32.45
2018-03-06T20:08:50.190Z,33.58
2018-03-06T20:11:17.340Z,34.13
2018-03-06T20:13:44.325Z,33.30
2018-03-06T20:16:11.257Z,33.15
2018-03-06T20:18:38.305Z,35.60
2018-03-06T20:21:05.532Z,37.85
2018-03-06T20:23:32.568Z,35.17
2018-03-06T20:25:59.666Z,33.42
2018-03-06T20:28:26.696Z,37.35
2018-03-06T20:30:59.615Z,36.70
2018-03-06T20:33:26.519Z,37.97
2018-03-06T20:35:53.494Z,51.45
2018-03-06T20:38:26.167Z,40.75
2018-03-06T20:40:53.324Z,37.00
2018-03-06T20:43:20.311Z,35.20
2018-03-06T20:45:53.262Z,35.67
2018-03-06T20:48:20.182Z,37.25
2018-03-06T20:50:47.210Z,35.13
2018-03-06T20:53:20.090Z,36.60
2018-03-06T20:55:47.165Z,35.90
2018-03-06T20:58:14.045Z,38.63
2018-03-06T21:00:41.196Z,38.28
2018-03-06T21:03:08.080Z,37.45
2018-03-06T21:05:35.064Z,38.50
2018-03-06T21:08:02.109Z,40.38
2018-03-06T21:10:29.115Z,35.10
2018-03-06T21:12:56.097Z,40.38
2018-03-06T21:15:23.084Z,38.85
2018-03-06T21:17:49.940Z,40.35
2018-03-06T21:20:16.912Z,38.63
2018-03-06T21:22:43.878Z,40.28
2018-03-06T21:25:10.924Z,41.42
2018-03-06T21:27:38.155Z,38.33
2018-03-06T21:30:05.759Z,38.20
2018-03-06T21:32:32.865Z,38.97
2018-03-06T21:35:00.275Z,38.50
2018-03-06T21:37:27.485Z,38.70
2018-03-06T21:39:54.676Z,39.15
2018-03-06T21:42:21.670Z,37.70
2018-03-06T21:44:48.614Z,39.15
2018-03-06T21:47:15.504Z,39.22
2018-03-06T21:49:42.697Z,37.97
2018-03-06T21:52:10.393Z,37.90
2018-03-06T21:54:37.526Z,40.08
2018-03-06T21:57:04.903Z,38.33
2018-03-06T21:59:32.083Z,36.67
2018-03-06T22:01:59.559Z,36.63
2018-03-06T22:04:26.488Z,38.30
2018-03-06T22:06:53.682Z,36.67
2018-03-06T22:09:21.852Z,39.78
2018-03-06T22:11:49.096Z,37.35
2018-03-06T22:14:16.065Z,37.15
2018-03-06T22:16:43.232Z,37.13
2018-03-06T22:19:10.711Z,37.50
2018-03-06T22:21:37.932Z,37.40
2018-03-06T22:24:05.242Z,39.20
2018-03-06T22:26:33.237Z,39.00
2018-03-06T22:29:00.236Z,38.80
2018-03-06T22:31:27.452Z,38.75
2018-03-06T22:33:54.454Z,40.03
2018-03-06T22:36:21.582Z,38.70
2018-03-06T22:38:48.860Z,38.63
2018-03-06T22:41:15.880Z,39.70
2018-03-06T22:43:42.942Z,41.55
2018-03-06T22:46:10.960Z,40.17
2018-03-06T22:48:38.481Z,41.78
2018-03-06T22:51:05.608Z,39.83
2018-03-06T22:53:32.736Z,39.20
2018-03-06T22:55:59.613Z,39.13
2018-03-06T22:58:26.590Z,40.35
2018-03-06T23:00:53.815Z,39.95
2018-03-06T23:03:21.121Z,40.05
2018-03-06T23:05:48.187Z,41.37
2018-03-06T23:08:15.111Z,43.45
2018-03-06T23:10:42.326Z,40.15
2018-03-06T23:13:09.350Z,43.00
2018-03-06T23:15:36.489Z,43.05
2018-03-06T23:18:03.536Z,42.53
2018-03-06T23:20:30.621Z,44.30
2018-03-06T23:22:57.641Z,44.58
2018-03-06T23:25:24.631Z,44.67
2018-03-06T23:27:51.755Z,45.08
2018-03-06T23:30:18.816Z,46.00
2018-03-06T23:32:45.870Z,44.53
2018-03-06T23:35:12.940Z,46.50
2018-03-06T23:37:39.868Z,43.80
2018-03-06T23:40:06.955Z,44.40
2018-03-06T23:42:34.074Z,44.15
2018-03-06T23:45:01.031Z,49.75
2018-03-06T23:47:27.970Z,44.00
2018-03-06T23:49:55.020Z,44.55
2018-03-06T23:52:21.985Z,44.63
2018-03-06T23:54:48.972Z,47.05
2018-03-06T23:57:16.051Z,45.28
2018-03-06T23:59:43.030Z,42.60
